Cap Isabel — VRGA2 — position and weather

sailwx.info

Track history (hours):
 
Tides and Currents Weather Stations Pressure Air Temp Water Temp Dewpoint Dewpoint Depression Visibility Wind Speed Wind Dir Waves Ship Positions

Cap Isabel

Last reported at 2014-Aug-30 21:15 UTC. Time now 2014-Aug-30 22:38 UTC.
Position N 39°51' W 075°15'.

Length 264 m; draft 11.4 m.

Type: Ship (hazmat cat C). MMSI: 477639500.

Date/timePositionNaut miles runAvg speedWind from/ knotsBaromVisibWave heightAir tempDewpointWater temp
2014-Aug-30 21:15N 39°51' W 075°15'0 0.0
2014-Aug-30 05:18N 39°51' W 075°14'2010.3
2014-Aug-30 03:23N 39°38' W 075°34'72 2.5
2014-Aug-28 22:27N 39°15' W 074°06'1213.4
2014-Aug-28 21:33N 39°27' W 073°60'1313.3
2014-Aug-28 20:34N 39°39' W 073°53'1313.3
2014-Aug-28 19:33N 39°52' W 073°52'3013.4
2014-Aug-28 17:19N 40°22' W 073°49'810.8
2014-Aug-28 16:33N 40°29' W 073°54'1312.6
2014-Aug-28 15:33N 40°40' W 074°03'2 1.5
2014-Aug-28 14:32N 40°40' W 074°05'0 0.0
2014-Aug-28 13:32N 40°40' W 074°05'0 0.0
2014-Aug-28 12:32N 40°40' W 074°05'0 0.0
2014-Aug-28 11:32N 40°40' W 074°05'0 0.0
2014-Aug-28 10:32N 40°40' W 074°05'0 0.0
2014-Aug-28 09:32N 40°40' W 074°05'0 0.0
2014-Aug-28 08:32N 40°40' W 074°05'0 0.0
2014-Aug-28 07:32N 40°40' W 074°05'0 0.0
2014-Aug-28 06:32N 40°40' W 074°05'0 0.0
2014-Aug-28 05:32N 40°40' W 074°05'0 0.0
2014-Aug-28 04:32N 40°40' W 074°05'0 0.0
2014-Aug-28 03:32N 40°40' W 074°05'0 0.0
2014-Aug-28 02:26N 40°40' W 074°05'0 0.0
2014-Aug-28 01:32N 40°40' W 074°05'0 0.0
2014-Aug-28 00:32N 40°40' W 074°05'0 0.0
2014-Aug-27 23:32N 40°40' W 074°05'0 0.0
2014-Aug-27 22:32N 40°40' W 074°05'0 0.0
2014-Aug-27 21:32N 40°40' W 074°05'0 0.0
2014-Aug-27 20:32N 40°40' W 074°05'0 0.0
2014-Aug-27 19:32N 40°40' W 074°05'0 0.0
2014-Aug-27 18:32N 40°40' W 074°05'0 0.0
2014-Aug-27 17:32N 40°40' W 074°05'0 0.0
2014-Aug-27 16:32N 40°40' W 074°05'0 0.0
2014-Aug-27 15:32N 40°40' W 074°05'0 0.0
2014-Aug-27 14:32N 40°40' W 074°05'0 0.0
2014-Aug-27 13:32N 40°40' W 074°05'0 0.0
2014-Aug-27 12:32N 40°40' W 074°05'0 0.0
2014-Aug-27 11:32N 40°40' W 074°05'0 0.0
2014-Aug-27 10:32N 40°40' W 074°05'3 2.6
2014-Aug-27 09:33N 40°38' W 074°03'1312.9
2014-Aug-27 08:33N 40°28' W 073°52'6 6.1
2014-Aug-27 07:34N 40°24' W 073°47'7 7.4
2014-Aug-27 06:34N 40°16' W 073°46'1615.5
2014-Aug-27 05:33N 40°01' W 073°43'1212.1
2014-Aug-27 04:34N 39°49' W 073°41'1818.4
2014-Aug-27 03:33N 39°34' W 073°27'1212.2
2014-Aug-27 02:33N 39°24' W 073°17'1918.5
2014-Aug-27 01:33N 39°10' W 073°02'1716.6
2014-Aug-27 00:33N 38°58' W 072°48'1212.4
2014-Aug-26 23:33N 38°48' W 072°37'1313.0
2014-Aug-26 22:33N 38°38' W 072°27'2014.2
2014-Aug-26 21:08N 38°21' W 072°12'4 6.6
2014-Aug-26 20:31N 38°18' W 072°09'1 1.4
2014-Aug-26 19:31N 38°19' W 072°07'1 1.4
2014-Aug-26 18:28N 38°20' W 072°06'5 5.8
2014-Aug-26 17:33N 38°15' W 072°02'16613.6
2014-Aug-26 05:21N 36°09' W 069°47'  
Track history (hours):
 
Tides and Currents Weather Stations Pressure Air Temp Water Temp Dewpoint Dewpoint Depression Visibility Wind Speed Wind Dir Waves Ship Positions

Cap Isabel

Last reported at 2014-Aug-30 21:15 UTC. Time now 2014-Aug-30 22:38 UTC.
Position N 39°51' W 075°15'.

Length 264 m; draft 11.4 m.

Type: Ship (hazmat cat C). MMSI: 477639500.

Date/timePositionNaut miles runAvg speedWind from/ knotsBaromVisibWave heightAir tempDewpointWater temp
2014-Aug-30 21:15N 39°51' W 075°15'0 0.0
2014-Aug-30 05:18N 39°51' W 075°14'2010.3
2014-Aug-30 03:23N 39°38' W 075°34'72 2.5
2014-Aug-28 22:27N 39°15' W 074°06'1213.4
2014-Aug-28 21:33N 39°27' W 073°60'1313.3
2014-Aug-28 20:34N 39°39' W 073°53'1313.3
2014-Aug-28 19:33N 39°52' W 073°52'3013.4
2014-Aug-28 17:19N 40°22' W 073°49'810.8
2014-Aug-28 16:33N 40°29' W 073°54'1312.6
2014-Aug-28 15:33N 40°40' W 074°03'2 1.5
2014-Aug-28 14:32N 40°40' W 074°05'0 0.0
2014-Aug-28 13:32N 40°40' W 074°05'0 0.0
2014-Aug-28 12:32N 40°40' W 074°05'0 0.0
2014-Aug-28 11:32N 40°40' W 074°05'0 0.0
2014-Aug-28 10:32N 40°40' W 074°05'0 0.0
2014-Aug-28 09:32N 40°40' W 074°05'0 0.0
2014-Aug-28 08:32N 40°40' W 074°05'0 0.0
2014-Aug-28 07:32N 40°40' W 074°05'0 0.0
2014-Aug-28 06:32N 40°40' W 074°05'0 0.0
2014-Aug-28 05:32N 40°40' W 074°05'0 0.0
2014-Aug-28 04:32N 40°40' W 074°05'0 0.0
2014-Aug-28 03:32N 40°40' W 074°05'0 0.0
2014-Aug-28 02:26N 40°40' W 074°05'0 0.0
2014-Aug-28 01:32N 40°40' W 074°05'0 0.0
2014-Aug-28 00:32N 40°40' W 074°05'0 0.0
2014-Aug-27 23:32N 40°40' W 074°05'0 0.0
2014-Aug-27 22:32N 40°40' W 074°05'0 0.0
2014-Aug-27 21:32N 40°40' W 074°05'0 0.0
2014-Aug-27 20:32N 40°40' W 074°05'0 0.0
2014-Aug-27 19:32N 40°40' W 074°05'0 0.0
2014-Aug-27 18:32N 40°40' W 074°05'0 0.0
2014-Aug-27 17:32N 40°40' W 074°05'0 0.0
2014-Aug-27 16:32N 40°40' W 074°05'0 0.0
2014-Aug-27 15:32N 40°40' W 074°05'0 0.0
2014-Aug-27 14:32N 40°40' W 074°05'0 0.0
2014-Aug-27 13:32N 40°40' W 074°05'0 0.0
2014-Aug-27 12:32N 40°40' W 074°05'0 0.0
2014-Aug-27 11:32N 40°40' W 074°05'0 0.0
2014-Aug-27 10:32N 40°40' W 074°05'3 2.6
2014-Aug-27 09:33N 40°38' W 074°03'1312.9
2014-Aug-27 08:33N 40°28' W 073°52'6 6.1
2014-Aug-27 07:34N 40°24' W 073°47'7 7.4
2014-Aug-27 06:34N 40°16' W 073°46'1615.5
2014-Aug-27 05:33N 40°01' W 073°43'1212.1
2014-Aug-27 04:34N 39°49' W 073°41'1818.4
2014-Aug-27 03:33N 39°34' W 073°27'1212.2
2014-Aug-27 02:33N 39°24' W 073°17'1918.5
2014-Aug-27 01:33N 39°10' W 073°02'1716.6
2014-Aug-27 00:33N 38°58' W 072°48'1212.4
2014-Aug-26 23:33N 38°48' W 072°37'1313.0
2014-Aug-26 22:33N 38°38' W 072°27'2014.2
2014-Aug-26 21:08N 38°21' W 072°12'4 6.6
2014-Aug-26 20:31N 38°18' W 072°09'1 1.4
2014-Aug-26 19:31N 38°19' W 072°07'1 1.4
2014-Aug-26 18:28N 38°20' W 072°06'5 5.8
2014-Aug-26 17:33N 38°15' W 072°02'16613.6
2014-Aug-26 05:21N 36°09' W 069°47'  

Dump ship's entire track history